createdAt,value
2022-10-28T00:01:47.688Z,77.39
2022-10-28T00:04:50.625Z,77.23
2022-10-28T00:07:53.512Z,77.43
2022-10-28T00:11:03.456Z,77.82
2022-10-28T00:14:07.959Z,77.83
2022-10-28T00:17:12.216Z,78.03
2022-10-28T00:20:15.915Z,78.18
2022-10-28T00:23:18.520Z,78.38
2022-10-28T00:26:24.511Z,77.70
2022-10-28T00:29:27.288Z,77.86
2022-10-28T00:32:32.466Z,78.09
2022-10-28T00:35:35.287Z,78.18
2022-10-28T00:38:38.023Z,78.03
2022-10-28T00:41:43.080Z,77.92
2022-10-28T00:44:58.018Z,77.95
2022-10-28T00:48:03.892Z,78.49
2022-10-28T00:51:06.810Z,78.03
2022-10-28T00:54:09.902Z,78.18
2022-10-28T00:57:15.939Z,78.20
2022-10-28T01:00:18.956Z,78.11
2022-10-28T01:03:23.035Z,78.55
2022-10-28T01:06:27.887Z,78.36
2022-10-28T01:09:30.482Z,78.41
2022-10-28T01:12:41.174Z,78.49
2022-10-28T01:15:50.694Z,78.63
2022-10-28T01:19:07.603Z,78.71
2022-10-28T01:22:21.389Z,78.56
2022-10-28T01:25:42.839Z,78.51
2022-10-28T01:29:04.201Z,78.66
2022-10-28T01:32:13.064Z,78.87
2022-10-28T01:35:23.266Z,78.79
2022-10-28T01:38:34.029Z,78.63
2022-10-28T01:41:44.250Z,78.77
2022-10-28T01:44:53.260Z,78.52
2022-10-28T01:48:01.515Z,78.88
2022-10-28T01:51:09.761Z,78.78
2022-10-28T01:54:16.024Z,78.92
2022-10-28T01:57:19.762Z,79.24
2022-10-28T02:00:22.568Z,79.20
2022-10-28T02:03:27.280Z,79.16
2022-10-28T02:06:33.252Z,79.06
2022-10-28T02:09:52.124Z,79.15
2022-10-28T02:12:57.445Z,79.19
2022-10-28T02:16:07.582Z,79.32
2022-10-28T02:19:20.108Z,79.28
2022-10-28T02:22:27.700Z,79.59
2022-10-28T02:25:34.899Z,79.34
2022-10-28T02:28:43.016Z,79.34
2022-10-28T02:31:50.343Z,78.74
2022-10-28T02:34:57.784Z,79.88
2022-10-28T02:38:03.937Z,79.66
2022-10-28T02:41:14.214Z,80.56
2022-10-28T02:44:21.336Z,80.05
2022-10-28T02:47:29.897Z,80.42
2022-10-28T02:50:37.882Z,80.49
2022-10-28T02:53:51.550Z,80.30
2022-10-28T02:57:00.566Z,79.75
2022-10-28T03:00:08.446Z,80.09
2022-10-28T03:03:11.112Z,80.29
2022-10-28T03:06:15.477Z,79.92
2022-10-28T03:09:18.390Z,80.26
2022-10-28T03:12:21.063Z,80.66
2022-10-28T03:15:23.964Z,80.85
2022-10-28T03:18:26.535Z,80.30
2022-10-28T03:21:30.639Z,80.20
2022-10-28T03:24:33.530Z,80.46
2022-10-28T03:27:36.134Z,80.44
2022-10-28T03:30:38.909Z,80.76
2022-10-28T03:33:41.533Z,80.54
2022-10-28T03:36:45.938Z,80.76
2022-10-28T03:39:48.703Z,80.25
2022-10-28T03:42:51.655Z,80.87
2022-10-28T03:45:54.742Z,80.71
2022-10-28T03:48:57.417Z,80.50
2022-10-28T03:52:01.596Z,80.27
2022-10-28T03:55:04.966Z,80.68
2022-10-28T03:58:07.537Z,81.36
2022-10-28T04:01:10.465Z,80.39
2022-10-28T04:04:13.258Z,81.18
2022-10-28T04:07:17.332Z,80.66
2022-10-28T04:10:20.017Z,80.71
2022-10-28T04:13:22.599Z,80.40
2022-10-28T04:16:25.376Z,80.38
2022-10-28T04:19:28.015Z,80.28
2022-10-28T04:22:32.073Z,80.12
2022-10-28T04:25:34.767Z,79.95
2022-10-28T04:28:37.359Z,80.47
2022-10-28T04:31:40.103Z,80.34
2022-10-28T04:34:42.708Z,79.60
2022-10-28T04:37:46.864Z,80.63
2022-10-28T04:40:49.936Z,80.29
2022-10-28T04:43:52.527Z,79.83
2022-10-28T04:46:56.837Z,80.27
2022-10-28T04:49:59.409Z,80.44
2022-10-28T04:53:03.501Z,80.14
2022-10-28T04:56:06.863Z,80.07
2022-10-28T04:59:09.430Z,80.23
2022-10-28T05:02:12.303Z,80.69
2022-10-28T05:08:24.266Z,80.31
2022-10-28T05:11:27.032Z,80.32
2022-10-28T05:14:29.664Z,80.04
2022-10-28T05:17:32.394Z,80.20
2022-10-28T05:20:35.140Z,80.55
2022-10-28T05:23:39.162Z,81.02
2022-10-28T05:26:41.973Z,81.04
2022-10-28T05:29:44.646Z,80.46
2022-10-28T05:32:49.280Z,80.28
2022-10-28T05:35:54.294Z,80.80
2022-10-28T05:38:58.511Z,80.95
2022-10-28T05:42:01.235Z,80.45
2022-10-28T05:45:03.903Z,80.97
2022-10-28T05:48:07.836Z,81.79
2022-10-28T05:51:10.404Z,82.04
2022-10-28T05:54:14.565Z,81.45
2022-10-28T05:57:17.368Z,81.34
2022-10-28T06:00:21.658Z,81.64
2022-10-28T06:03:28.603Z,81.04
2022-10-28T06:06:33.809Z,81.26
2022-10-28T06:09:38.040Z,81.83
2022-10-28T06:12:39.387Z,82.06
2022-10-28T06:15:42.024Z,81.40
2022-10-28T06:18:44.903Z,81.64
2022-10-28T06:21:47.618Z,82.02
2022-10-28T06:24:51.619Z,81.91
2022-10-28T06:27:55.676Z,82.14
2022-10-28T06:31:01.581Z,82.09
2022-10-28T06:34:04.441Z,83.03
2022-10-28T06:37:08.910Z,82.80
2022-10-28T06:40:13.575Z,82.01
2022-10-28T06:43:16.339Z,82.32
2022-10-28T06:46:18.936Z,82.04
2022-10-28T06:49:23.369Z,82.13
2022-10-28T06:52:25.969Z,82.32
2022-10-28T06:55:31.094Z,82.20
2022-10-28T06:58:33.869Z,83.11
2022-10-28T07:01:36.591Z,82.87
2022-10-28T07:04:39.906Z,82.16
2022-10-28T07:07:42.527Z,82.26
2022-10-28T07:10:54.711Z,82.27
2022-10-28T07:13:57.476Z,81.47
2022-10-28T07:17:00.218Z,80.75
2022-10-28T07:20:03.097Z,80.84
2022-10-28T07:23:05.760Z,79.63
2022-10-28T07:26:09.924Z,79.37
2022-10-28T07:29:12.796Z,79.82
2022-10-28T07:32:16.139Z,79.13
2022-10-28T07:35:19.176Z,79.12
2022-10-28T07:38:22.531Z,78.96
2022-10-28T07:41:27.095Z,78.18
2022-10-28T07:44:29.824Z,77.69
2022-10-28T07:47:32.418Z,77.51
2022-10-28T07:50:35.377Z,76.95
2022-10-28T07:53:38.000Z,76.40
2022-10-28T07:56:42.150Z,75.59
2022-10-28T07:59:45.104Z,75.52
2022-10-28T08:02:47.924Z,75.05
2022-10-28T08:05:50.736Z,74.10
2022-10-28T08:08:56.544Z,72.57
2022-10-28T08:12:00.946Z,73.85
2022-10-28T08:15:03.875Z,74.40
2022-10-28T08:18:06.689Z,72.67
2022-10-28T08:21:11.358Z,72.86
2022-10-28T08:24:14.058Z,72.61
2022-10-28T08:27:18.149Z,72.09
2022-10-28T08:30:20.931Z,72.15
2022-10-28T08:33:23.637Z,72.39
2022-10-28T08:36:26.511Z,72.31
2022-10-28T08:39:29.186Z,72.45
2022-10-28T08:42:41.500Z,72.22
2022-10-28T08:45:51.641Z,71.66
2022-10-28T08:48:57.673Z,69.45
2022-10-28T08:52:05.078Z,70.64
2022-10-28T08:55:13.374Z,70.08
2022-10-28T08:58:21.888Z,69.46
2022-10-28T09:01:36.550Z,68.62
2022-10-28T09:04:41.425Z,69.06
2022-10-28T09:07:44.317Z,67.53
2022-10-28T09:10:59.908Z,68.41
2022-10-28T09:14:16.714Z,68.29
2022-10-28T09:17:21.556Z,67.86
2022-10-28T09:20:35.112Z,67.20
2022-10-28T09:23:49.654Z,66.34
2022-10-28T09:27:00.025Z,65.15
2022-10-28T09:30:19.604Z,63.96
2022-10-28T09:33:47.154Z,61.60
2022-10-28T09:36:55.323Z,61.11
2022-10-28T09:40:03.240Z,61.13
2022-10-28T09:43:12.732Z,59.78
2022-10-28T09:46:18.936Z,58.85
2022-10-28T09:49:26.102Z,59.32
2022-10-28T09:52:35.731Z,59.35
2022-10-28T09:55:38.435Z,60.31
2022-10-28T09:58:47.192Z,60.57
2022-10-28T10:01:51.385Z,60.49
2022-10-28T10:04:54.466Z,60.04
2022-10-28T10:08:00.450Z,58.00
2022-10-28T10:11:06.952Z,56.27
2022-10-28T10:14:13.850Z,55.81
2022-10-28T10:17:21.290Z,55.74
2022-10-28T10:20:23.900Z,53.70
2022-10-28T10:23:32.078Z,51.78
2022-10-28T10:26:35.664Z,53.03
2022-10-28T10:29:45.073Z,51.86
2022-10-28T10:32:50.014Z,52.48
2022-10-28T10:36:00.256Z,50.25
2022-10-28T10:39:04.214Z,49.17
2022-10-28T10:42:17.446Z,50.51
2022-10-28T10:45:23.787Z,49.84
2022-10-28T10:48:28.176Z,49.74
2022-10-28T10:51:31.052Z,47.91
2022-10-28T10:54:35.221Z,48.25
2022-10-28T10:57:38.177Z,48.73
2022-10-28T11:00:47.009Z,47.55
2022-10-28T11:03:55.187Z,46.93
2022-10-28T11:06:58.839Z,48.99
2022-10-28T11:10:02.839Z,46.58
2022-10-28T11:13:26.499Z,46.95
2022-10-28T11:16:29.046Z,46.23
2022-10-28T11:19:34.665Z,47.81
2022-10-28T11:22:46.739Z,46.59
2022-10-28T11:25:52.705Z,46.33
2022-10-28T11:29:10.054Z,45.26
2022-10-28T11:32:34.004Z,45.86
2022-10-28T11:35:54.679Z,45.51
2022-10-28T11:39:13.685Z,46.03
2022-10-28T11:42:25.609Z,46.59
2022-10-28T11:45:33.810Z,44.80
2022-10-28T11:48:59.195Z,44.68
2022-10-28T11:52:13.882Z,45.00
2022-10-28T11:55:27.236Z,46.04
2022-10-28T11:58:40.303Z,45.14
2022-10-28T12:01:55.234Z,46.70
2022-10-28T12:05:05.580Z,46.11
2022-10-28T12:08:26.418Z,47.12
2022-10-28T12:11:40.141Z,47.47
2022-10-28T12:14:52.253Z,48.21
2022-10-28T12:18:02.022Z,47.69
2022-10-28T12:21:16.360Z,47.71
2022-10-28T12:24:23.685Z,47.75
2022-10-28T12:27:31.536Z,47.93
2022-10-28T12:30:38.691Z,48.63
2022-10-28T12:33:45.887Z,48.81
2022-10-28T12:36:53.299Z,48.76
2022-10-28T12:40:03.296Z,48.40
2022-10-28T12:43:11.965Z,48.19
2022-10-28T12:46:23.726Z,48.61
2022-10-28T12:49:37.978Z,49.28
2022-10-28T12:52:48.486Z,49.46
2022-10-28T12:55:58.098Z,48.80
2022-10-28T12:59:07.660Z,48.42
2022-10-28T13:02:17.936Z,49.73
2022-10-28T13:05:24.996Z,49.64
2022-10-28T13:08:45.518Z,49.56
2022-10-28T13:12:16.964Z,50.08
2022-10-28T13:15:44.274Z,50.71
2022-10-28T13:18:59.539Z,50.19
2022-10-28T13:22:20.464Z,49.59
2022-10-28T13:25:35.177Z,51.10
2022-10-28T13:28:47.157Z,49.80
2022-10-28T13:31:50.213Z,49.85
2022-10-28T13:34:52.784Z,50.18
2022-10-28T13:37:57.340Z,50.50
2022-10-28T13:41:28.618Z,50.00
2022-10-28T13:44:48.568Z,49.99
2022-10-28T13:47:51.309Z,50.45
2022-10-28T13:51:42.700Z,50.25
2022-10-28T13:54:56.102Z,50.14
2022-10-28T13:58:01.959Z,50.68
2022-10-28T14:02:01.570Z,50.66
2022-10-28T14:05:14.891Z,50.42
2022-10-28T14:08:22.366Z,50.60
2022-10-28T14:11:28.614Z,50.98
2022-10-28T14:14:31.781Z,51.05
2022-10-28T14:17:42.629Z,51.76
2022-10-28T14:20:58.871Z,51.56
2022-10-28T14:24:13.298Z,52.62
2022-10-28T14:27:28.824Z,51.55
2022-10-28T14:30:31.407Z,52.56
2022-10-28T14:33:34.786Z,52.57
2022-10-28T14:36:48.935Z,52.32
2022-10-28T14:40:07.097Z,52.92
2022-10-28T14:43:44.451Z,53.42
2022-10-28T14:47:00.877Z,53.83
2022-10-28T14:50:08.231Z,53.82
2022-10-28T14:53:18.440Z,54.30
2022-10-28T14:56:25.557Z,54.82
2022-10-28T14:59:34.331Z,55.17
2022-10-28T15:02:39.125Z,55.16
2022-10-28T15:05:41.942Z,55.45
2022-10-28T15:08:45.923Z,55.98
2022-10-28T15:11:51.764Z,55.79
2022-10-28T15:14:56.067Z,56.64
2022-10-28T15:17:59.804Z,57.31
2022-10-28T15:21:10.059Z,57.07
2022-10-28T15:24:17.590Z,57.63
2022-10-28T15:27:21.208Z,57.99
2022-10-28T15:30:25.994Z,58.50
2022-10-28T15:33:31.623Z,58.50
2022-10-28T15:36:34.325Z,59.13
2022-10-28T15:39:40.072Z,59.47
2022-10-28T15:42:50.807Z,59.27
2022-10-28T15:45:54.406Z,60.28
2022-10-28T15:48:59.548Z,60.66
2022-10-28T15:52:22.048Z,60.77
2022-10-28T15:55:47.880Z,61.18
2022-10-28T15:59:14.848Z,61.24
2022-10-28T16:02:40.810Z,61.99
2022-10-28T16:05:47.762Z,62.27
2022-10-28T16:09:02.006Z,62.04
2022-10-28T16:12:16.026Z,62.92
2022-10-28T16:15:19.270Z,62.19
2022-10-28T16:18:25.378Z,62.36
2022-10-28T16:21:28.622Z,61.97
2022-10-28T16:24:31.214Z,62.55
2022-10-28T16:27:35.633Z,62.60
2022-10-28T16:30:38.667Z,63.20
2022-10-28T16:33:41.356Z,63.42
2022-10-28T16:36:44.298Z,63.79
2022-10-28T16:39:47.128Z,63.00
2022-10-28T16:42:51.669Z,63.33
2022-10-28T16:45:57.095Z,63.39
2022-10-28T16:49:01.214Z,63.75
2022-10-28T16:52:05.685Z,63.84
2022-10-28T16:55:16.292Z,64.25
2022-10-28T16:58:23.172Z,64.12
2022-10-28T17:01:29.162Z,64.06
2022-10-28T17:04:32.132Z,64.67
2022-10-28T17:07:35.125Z,64.40
2022-10-28T17:10:39.867Z,64.68
2022-10-28T17:13:44.108Z,64.56
2022-10-28T17:16:46.950Z,65.05
2022-10-28T17:19:49.724Z,65.17
2022-10-28T17:22:52.982Z,65.43
2022-10-28T17:25:59.249Z,65.10
2022-10-28T17:29:03.302Z,65.58
2022-10-28T17:32:08.743Z,66.10
2022-10-28T17:35:13.897Z,65.90
2022-10-28T17:38:16.515Z,66.56
2022-10-28T17:41:19.400Z,65.83
2022-10-28T17:44:24.379Z,66.35
2022-10-28T17:47:27.189Z,66.57
2022-10-28T17:50:29.735Z,66.42
2022-10-28T17:53:32.926Z,66.88
2022-10-28T17:56:35.876Z,67.53
2022-10-28T17:59:40.107Z,67.30
2022-10-28T18:02:43.299Z,67.50
2022-10-28T18:05:46.044Z,67.55
2022-10-28T18:11:53.431Z,68.19
2022-10-28T18:14:58.024Z,68.27
2022-10-28T18:18:01.598Z,68.29
2022-10-28T18:21:04.869Z,68.71
2022-10-28T18:24:08.698Z,68.71
2022-10-28T18:27:11.671Z,69.01
2022-10-28T18:30:16.143Z,69.33
2022-10-28T18:33:19.062Z,69.51
2022-10-28T18:36:23.059Z,69.13
2022-10-28T18:39:27.004Z,69.29
2022-10-28T18:42:30.553Z,69.68
2022-10-28T18:45:35.425Z,69.85
2022-10-28T18:48:38.875Z,69.85
2022-10-28T18:51:41.840Z,69.76
2022-10-28T18:54:44.497Z,70.05
2022-10-28T18:57:50.939Z,70.42
2022-10-28T19:00:55.458Z,70.90
2022-10-28T19:03:59.973Z,70.56
2022-10-28T19:07:02.746Z,70.99
2022-10-28T19:10:07.560Z,70.97
2022-10-28T19:13:10.357Z,71.00
2022-10-28T19:16:15.776Z,70.92
2022-10-28T19:19:18.803Z,71.36
2022-10-28T19:22:22.085Z,71.36
2022-10-28T19:25:24.933Z,71.20
2022-10-28T19:28:28.231Z,71.25
2022-10-28T19:31:36.382Z,70.89
2022-10-28T19:34:39.338Z,71.33
2022-10-28T19:37:42.134Z,71.37
2022-10-28T19:40:44.703Z,71.36
2022-10-28T19:43:47.911Z,71.67
2022-10-28T19:46:51.878Z,71.96
2022-10-28T19:49:54.850Z,71.86
2022-10-28T19:52:57.962Z,71.91
2022-10-28T19:56:02.446Z,72.07
2022-10-28T19:59:08.391Z,71.71
2022-10-28T20:02:13.035Z,71.91
2022-10-28T20:05:16.263Z,72.14
2022-10-28T20:08:19.044Z,72.32
2022-10-28T20:11:26.155Z,72.57
2022-10-28T20:14:29.811Z,72.43
2022-10-28T20:17:34.222Z,72.34
2022-10-28T20:20:37.217Z,72.28
2022-10-28T20:23:40.525Z,72.26
2022-10-28T20:26:43.559Z,72.57
2022-10-28T20:29:46.478Z,72.90
2022-10-28T20:32:54.794Z,72.93
2022-10-28T20:35:59.252Z,72.94
2022-10-28T20:39:03.811Z,73.04
2022-10-28T20:42:06.596Z,72.85
2022-10-28T20:45:10.544Z,73.24
2022-10-28T20:48:14.725Z,73.14
2022-10-28T20:51:18.028Z,73.59
2022-10-28T20:54:20.722Z,73.55
2022-10-28T20:57:23.525Z,73.57
2022-10-28T21:00:26.258Z,73.49
2022-10-28T21:03:30.188Z,73.79
2022-10-28T21:06:33.931Z,73.77
2022-10-28T21:09:36.765Z,73.92
2022-10-28T21:12:39.362Z,73.91
2022-10-28T21:15:45.563Z,74.28
2022-10-28T21:18:50.126Z,74.19
2022-10-28T21:21:53.258Z,74.15
2022-10-28T21:24:56.258Z,74.62
2022-10-28T21:27:59.736Z,74.71
2022-10-28T21:31:05.761Z,74.63
2022-10-28T21:34:10.001Z,74.76
2022-10-28T21:37:12.950Z,74.51
2022-10-28T21:40:15.916Z,74.62
2022-10-28T21:43:18.452Z,74.75
2022-10-28T21:46:22.797Z,75.02
2022-10-28T21:49:26.858Z,74.82
2022-10-28T21:52:29.748Z,74.37
2022-10-28T21:55:46.003Z,75.26
2022-10-28T21:58:51.759Z,75.20
2022-10-28T22:01:55.521Z,74.92
2022-10-28T22:05:00.245Z,75.31
2022-10-28T22:08:04.861Z,75.62
2022-10-28T22:11:09.620Z,75.63
2022-10-28T22:14:12.220Z,75.39
2022-10-28T22:17:15.209Z,75.57
2022-10-28T22:20:19.534Z,74.98
2022-10-28T22:23:22.128Z,74.71
2022-10-28T22:26:26.851Z,74.64
2022-10-28T22:29:29.407Z,74.03
2022-10-28T22:32:32.135Z,74.26
2022-10-28T22:35:36.161Z,73.92
2022-10-28T22:38:38.945Z,74.05
2022-10-28T22:41:41.618Z,73.32
2022-10-28T22:44:44.241Z,73.40
2022-10-28T22:47:47.037Z,72.70
2022-10-28T22:50:51.124Z,72.72
2022-10-28T22:53:53.704Z,71.96
2022-10-28T22:56:56.370Z,72.11
2022-10-28T22:59:58.934Z,71.83
2022-10-28T23:03:01.741Z,71.57
2022-10-28T23:06:07.156Z,71.68
2022-10-28T23:09:10.328Z,71.66
2022-10-28T23:12:13.789Z,70.94
2022-10-28T23:15:16.523Z,70.61
2022-10-28T23:18:19.183Z,70.36
2022-10-28T23:21:24.747Z,70.27
2022-10-28T23:24:27.319Z,70.36
2022-10-28T23:27:30.159Z,70.16
2022-10-28T23:30:32.965Z,70.51
2022-10-28T23:33:36.045Z,70.06
2022-10-28T23:36:40.230Z,69.79
2022-10-28T23:39:42.771Z,69.75
2022-10-28T23:42:45.425Z,70.08
2022-10-28T23:45:48.037Z,70.07
2022-10-28T23:48:50.726Z,69.46
2022-10-28T23:51:54.767Z,69.51
2022-10-28T23:54:57.302Z,70.20
2022-10-28T23:58:00.300Z,70.17
